sensor_id;sensor_type;location;lat;lon;timestamp;pressure;altitude;pressure_sealevel;temperature;humidity
76864;BME280;65834;52.364;9.754;2022-12-07T00:00:24;100668.44;;;3.75;86.94
76864;BME280;65834;52.364;9.754;2022-12-07T00:02:53;100665.06;;;3.73;87.09
76864;BME280;65834;52.364;9.754;2022-12-07T00:05:26;100679.41;;;3.72;87.14
76864;BME280;65834;52.364;9.754;2022-12-07T00:07:55;100667.34;;;3.78;87.15
76864;BME280;65834;52.364;9.754;2022-12-07T00:10:25;100662.28;;;3.65;87.17
76864;BME280;65834;52.364;9.754;2022-12-07T00:12:54;100653.13;;;3.77;86.90
76864;BME280;65834;52.364;9.754;2022-12-07T00:15:24;100656.63;;;3.78;87.07
76864;BME280;65834;52.364;9.754;2022-12-07T00:17:53;100653.66;;;3.81;86.73
76864;BME280;65834;52.364;9.754;2022-12-07T00:20:25;100644.81;;;3.80;86.96
76864;BME280;65834;52.364;9.754;2022-12-07T00:22:55;100645.78;;;3.79;86.96
76864;BME280;65834;52.364;9.754;2022-12-07T00:25:25;100644.22;;;3.87;86.79
76864;BME280;65834;52.364;9.754;2022-12-07T00:27:54;100641.53;;;3.87;86.72
76864;BME280;65834;52.364;9.754;2022-12-07T00:30:25;100636.19;;;3.87;86.38
76864;BME280;65834;52.364;9.754;2022-12-07T00:32:55;100631.69;;;3.87;86.57
76864;BME280;65834;52.364;9.754;2022-12-07T00:35:27;100628.56;;;3.92;86.56
76864;BME280;65834;52.364;9.754;2022-12-07T00:37:57;100632.66;;;3.96;86.49
76864;BME280;65834;52.364;9.754;2022-12-07T00:40:26;100634.47;;;3.95;86.54
76864;BME280;65834;52.364;9.754;2022-12-07T00:42:56;100634.47;;;3.95;86.77
76864;BME280;65834;52.364;9.754;2022-12-07T00:45:25;100625.19;;;3.99;86.65
76864;BME280;65834;52.364;9.754;2022-12-07T00:47:55;100616.16;;;4.00;86.58
76864;BME280;65834;52.364;9.754;2022-12-07T00:50:27;100632.91;;;4.02;86.37
76864;BME280;65834;52.364;9.754;2022-12-07T00:52:57;100629.97;;;3.96;86.65
76864;BME280;65834;52.364;9.754;2022-12-07T00:55:26;100619.53;;;4.02;86.70
76864;BME280;65834;52.364;9.754;2022-12-07T00:57:56;100613.63;;;3.99;86.52
76864;BME280;65834;52.364;9.754;2022-12-07T01:00:25;100615.56;;;4.06;86.33
76864;BME280;65834;52.364;9.754;2022-12-07T01:02:55;100605.41;;;4.10;86.18
76864;BME280;65834;52.364;9.754;2022-12-07T01:05:27;100601.47;;;4.14;86.16
76864;BME280;65834;52.364;9.754;2022-12-07T01:07:56;100617.06;;;4.18;85.80
76864;BME280;65834;52.364;9.754;2022-12-07T01:10:26;100612.59;;;4.09;86.50
76864;BME280;65834;52.364;9.754;2022-12-07T01:12:57;100606.25;;;4.10;86.51
76864;BME280;65834;52.364;9.754;2022-12-07T01:15:27;100613.88;;;4.15;86.55
76864;BME280;65834;52.364;9.754;2022-12-07T01:17:56;100614.56;;;4.17;86.42
76864;BME280;65834;52.364;9.754;2022-12-07T01:20:28;100608.78;;;4.21;86.31
76864;BME280;65834;52.364;9.754;2022-12-07T01:22:58;100614.69;;;4.15;86.58
76864;BME280;65834;52.364;9.754;2022-12-07T01:25:28;100613.72;;;4.16;86.57
76864;BME280;65834;52.364;9.754;2022-12-07T01:27:57;100613.72;;;4.16;86.77
76864;BME280;65834;52.364;9.754;2022-12-07T01:30:27;100615.50;;;4.25;86.52
76864;BME280;65834;52.364;9.754;2022-12-07T01:32:57;100606.19;;;4.29;86.42
76864;BME280;65834;52.364;9.754;2022-12-07T01:35:29;100604.97;;;4.24;86.83
76864;BME280;65834;52.364;9.754;2022-12-07T01:37:58;100604.50;;;4.28;86.74
76864;BME280;65834;52.364;9.754;2022-12-07T01:40:28;100603.84;;;4.17;87.17
76864;BME280;65834;52.364;9.754;2022-12-07T01:42:57;100603.16;;;4.15;86.94
76864;BME280;65834;52.364;9.754;2022-12-07T01:45:41;100596.66;;;4.17;87.21
76864;BME280;65834;52.364;9.754;2022-12-07T01:48:14;100596.06;;;4.23;86.92
76864;BME280;65834;52.364;9.754;2022-12-07T01:50:50;100596.50;;;4.19;87.27
76864;BME280;65834;52.364;9.754;2022-12-07T01:53:21;100599.72;;;4.22;87.07
76864;BME280;65834;52.364;9.754;2022-12-07T01:55:54;100585.44;;;4.04;87.75
76864;BME280;65834;52.364;9.754;2022-12-07T01:58:25;100581.94;;;3.94;88.08
76864;BME280;65834;52.364;9.754;2022-12-07T02:00:55;100584.22;;;3.89;88.06
76864;BME280;65834;52.364;9.754;2022-12-07T02:03:28;100594.22;;;3.97;88.14
76864;BME280;65834;52.364;9.754;2022-12-07T02:06:04;100604.13;;;3.77;88.40
76864;BME280;65834;52.364;9.754;2022-12-07T02:08:35;100593.97;;;3.80;88.27
76864;BME280;65834;52.364;9.754;2022-12-07T02:11:05;100589.00;;;3.95;88.05
76864;BME280;65834;52.364;9.754;2022-12-07T02:13:38;100582.09;;;3.93;87.70
76864;BME280;65834;52.364;9.754;2022-12-07T02:16:17;100582.44;;;3.80;88.22
76864;BME280;65834;52.364;9.754;2022-12-07T02:18:59;100580.75;;;3.69;88.44
76864;BME280;65834;52.364;9.754;2022-12-07T02:21:42;100582.75;;;3.67;88.45
76864;BME280;65834;52.364;9.754;2022-12-07T02:24:23;100583.19;;;3.63;88.53
76864;BME280;65834;52.364;9.754;2022-12-07T02:27:11;100584.00;;;3.63;88.71
76864;BME280;65834;52.364;9.754;2022-12-07T02:29:54;100580.50;;;3.63;88.58
76864;BME280;65834;52.364;9.754;2022-12-07T02:32:32;100569.06;;;3.70;88.25
76864;BME280;65834;52.364;9.754;2022-12-07T02:35:10;100563.63;;;3.62;88.49
76864;BME280;65834;52.364;9.754;2022-12-07T02:37:42;100571.78;;;3.51;88.85
76864;BME280;65834;52.364;9.754;2022-12-07T02:40:19;100575.03;;;3.55;88.71
76864;BME280;65834;52.364;9.754;2022-12-07T02:42:52;100567.28;;;3.52;88.69
76864;BME280;65834;52.364;9.754;2022-12-07T02:45:28;100558.44;;;3.42;88.84
76864;BME280;65834;52.364;9.754;2022-12-07T02:48:00;100567.47;;;3.41;88.91
76864;BME280;65834;52.364;9.754;2022-12-07T02:50:29;100569.00;;;3.34;89.08
76864;BME280;65834;52.364;9.754;2022-12-07T02:52:59;100563.38;;;3.46;88.77
76864;BME280;65834;52.364;9.754;2022-12-07T02:55:32;100564.78;;;3.50;88.58
76864;BME280;65834;52.364;9.754;2022-12-07T02:58:13;100565.19;;;3.46;88.46
76864;BME280;65834;52.364;9.754;2022-12-07T03:00:50;100554.91;;;3.51;88.51
76864;BME280;65834;52.364;9.754;2022-12-07T03:03:22;100558.28;;;3.62;88.02
76864;BME280;65834;52.364;9.754;2022-12-07T03:05:59;100559.34;;;3.69;87.69
76864;BME280;65834;52.364;9.754;2022-12-07T03:08:42;100555.69;;;3.70;87.87
76864;BME280;65834;52.364;9.754;2022-12-07T03:11:16;100554.00;;;3.69;87.95
76864;BME280;65834;52.364;9.754;2022-12-07T03:13:55;100551.88;;;3.73;87.64
76864;BME280;65834;52.364;9.754;2022-12-07T03:16:35;100553.31;;;3.67;87.64
76864;BME280;65834;52.364;9.754;2022-12-07T03:19:10;100552.31;;;3.78;87.54
76864;BME280;65834;52.364;9.754;2022-12-07T03:21:46;100556.22;;;3.83;87.13
76864;BME280;65834;52.364;9.754;2022-12-07T03:24:19;100538.81;;;3.70;87.32
76864;BME280;65834;52.364;9.754;2022-12-07T03:26:52;100542.91;;;3.64;87.81
76864;BME280;65834;52.364;9.754;2022-12-07T03:29:27;100535.75;;;3.65;87.87
76864;BME280;65834;52.364;9.754;2022-12-07T03:32:02;100531.25;;;3.65;87.81
76864;BME280;65834;52.364;9.754;2022-12-07T03:34:38;100531.50;;;3.72;87.52
76864;BME280;65834;52.364;9.754;2022-12-07T03:37:12;100531.91;;;3.77;87.35
76864;BME280;65834;52.364;9.754;2022-12-07T03:39:56;100531.78;;;3.69;87.47
76864;BME280;65834;52.364;9.754;2022-12-07T03:42:27;100539.81;;;3.69;87.42
76864;BME280;65834;52.364;9.754;2022-12-07T03:44:57;100539.25;;;3.65;87.25
76864;BME280;65834;52.364;9.754;2022-12-07T03:47:32;100538.00;;;3.60;87.43
76864;BME280;65834;52.364;9.754;2022-12-07T03:50:07;100540.41;;;3.63;87.49
76864;BME280;65834;52.364;9.754;2022-12-07T03:52:40;100539.25;;;3.65;87.44
76864;BME280;65834;52.364;9.754;2022-12-07T03:55:17;100542.94;;;3.55;87.49
76864;BME280;65834;52.364;9.754;2022-12-07T03:57:52;100543.09;;;3.53;87.49
76864;BME280;65834;52.364;9.754;2022-12-07T04:00:24;100546.16;;;3.58;87.55
76864;BME280;65834;52.364;9.754;2022-12-07T04:02:56;100553.22;;;3.59;87.21
76864;BME280;65834;52.364;9.754;2022-12-07T04:05:26;100557.13;;;3.65;86.87
76864;BME280;65834;52.364;9.754;2022-12-07T04:07:56;100551.22;;;3.61;87.15
76864;BME280;65834;52.364;9.754;2022-12-07T04:10:25;100552.66;;;3.56;87.14
76864;BME280;65834;52.364;9.754;2022-12-07T04:12:55;100565.31;;;3.54;86.85
76864;BME280;65834;52.364;9.754;2022-12-07T04:15:24;100551.41;;;3.50;87.14
76864;BME280;65834;52.364;9.754;2022-12-07T04:17:57;100557.56;;;3.51;87.11
76864;BME280;65834;52.364;9.754;2022-12-07T04:20:26;100559.72;;;3.47;87.21
76864;BME280;65834;52.364;9.754;2022-12-07T04:22:56;100571.22;;;3.48;87.11
76864;BME280;65834;52.364;9.754;2022-12-07T04:25:25;100564.31;;;3.55;87.13
76864;BME280;65834;52.364;9.754;2022-12-07T04:27:55;100563.06;;;3.49;86.98
76864;BME280;65834;52.364;9.754;2022-12-07T04:30:24;100557.31;;;3.44;87.10
76864;BME280;65834;52.364;9.754;2022-12-07T04:32:56;100549.31;;;3.44;87.07
76864;BME280;65834;52.364;9.754;2022-12-07T04:35:26;100552.50;;;3.48;87.04
76864;BME280;65834;52.364;9.754;2022-12-07T04:37:55;100555.47;;;3.45;86.70
76864;BME280;65834;52.364;9.754;2022-12-07T04:40:25;100545.34;;;3.48;86.96
76864;BME280;65834;52.364;9.754;2022-12-07T04:42:54;100543.50;;;3.49;86.82
76864;BME280;65834;52.364;9.754;2022-12-07T04:45:24;100556.03;;;3.48;86.75
76864;BME280;65834;52.364;9.754;2022-12-07T04:47:53;100545.34;;;3.48;86.61
76864;BME280;65834;52.364;9.754;2022-12-07T04:50:25;100545.47;;;3.56;86.23
76864;BME280;65834;52.364;9.754;2022-12-07T04:52:55;100541.81;;;3.48;86.49
76864;BME280;65834;52.364;9.754;2022-12-07T04:55:24;100542.25;;;3.43;86.63
76864;BME280;65834;52.364;9.754;2022-12-07T04:57:54;100543.41;;;3.31;86.99
76864;BME280;65834;52.364;9.754;2022-12-07T05:00:23;100545.25;;;3.31;86.82
76864;BME280;65834;52.364;9.754;2022-12-07T05:02:53;100534.72;;;3.29;87.02
76864;BME280;65834;52.364;9.754;2022-12-07T05:05:25;100534.53;;;3.31;87.09
76864;BME280;65834;52.364;9.754;2022-12-07T05:07:55;100545.13;;;3.22;86.92
76864;BME280;65834;52.364;9.754;2022-12-07T05:10:24;100539.50;;;3.25;86.86
76864;BME280;65834;52.364;9.754;2022-12-07T05:12:54;100539.22;;;3.19;86.91
76864;BME280;65834;52.364;9.754;2022-12-07T05:15:23;100538.75;;;3.23;86.86
76864;BME280;65834;52.364;9.754;2022-12-07T05:17:53;100544.69;;;3.27;86.45
76864;BME280;65834;52.364;9.754;2022-12-07T05:20:25;100540.63;;;3.23;86.61
76864;BME280;65834;52.364;9.754;2022-12-07T05:22:54;100542.00;;;3.17;86.86
76864;BME280;65834;52.364;9.754;2022-12-07T05:25:25;100543.72;;;3.18;86.61
76864;BME280;65834;52.364;9.754;2022-12-07T05:27:54;100535.56;;;3.10;86.69
76864;BME280;65834;52.364;9.754;2022-12-07T05:30:25;100543.44;;;3.02;86.76
76864;BME280;65834;52.364;9.754;2022-12-07T05:32:54;100546.66;;;2.96;87.07
76864;BME280;65834;52.364;9.754;2022-12-07T05:35:27;100547.09;;;2.92;87.06
76864;BME280;65834;52.364;9.754;2022-12-07T05:37:56;100542.16;;;2.87;87.26
76864;BME280;65834;52.364;9.754;2022-12-07T05:40:26;100551.31;;;2.94;87.11
76864;BME280;65834;52.364;9.754;2022-12-07T05:42:55;100543.16;;;3.05;86.55
76864;BME280;65834;52.364;9.754;2022-12-07T05:45:30;100546.38;;;3.09;86.50
76864;BME280;65834;52.364;9.754;2022-12-07T05:47:59;100546.38;;;3.09;86.16
76864;BME280;65834;52.364;9.754;2022-12-07T05:50:31;100547.91;;;3.11;86.11
76864;BME280;65834;52.364;9.754;2022-12-07T05:53:01;100544.28;;;3.12;86.14
76864;BME280;65834;52.364;9.754;2022-12-07T05:55:31;100539.50;;;3.25;86.08
76864;BME280;65834;52.364;9.754;2022-12-07T05:58:00;100540.75;;;3.21;85.82
76864;BME280;65834;52.364;9.754;2022-12-07T06:00:42;100534.44;;;3.22;85.86
76864;BME280;65834;52.364;9.754;2022-12-07T06:03:16;100537.09;;;3.32;85.74
76864;BME280;65834;52.364;9.754;2022-12-07T06:05:49;100540.19;;;3.27;85.48
76864;BME280;65834;52.364;9.754;2022-12-07T06:08:18;100540.88;;;3.20;85.31
76864;BME280;65834;52.364;9.754;2022-12-07T06:10:48;100547.50;;;3.25;85.45
76864;BME280;65834;52.364;9.754;2022-12-07T06:13:39;100539.91;;;3.21;85.33
76864;BME280;65834;52.364;9.754;2022-12-07T06:16:13;100544.38;;;3.30;85.26
76864;BME280;65834;52.364;9.754;2022-12-07T06:18:42;100545.25;;;3.31;85.42
76864;BME280;65834;52.364;9.754;2022-12-07T06:21:14;100541.44;;;3.14;85.50
76864;BME280;65834;52.364;9.754;2022-12-07T06:23:44;100552.00;;;3.25;85.54
76864;BME280;65834;52.364;9.754;2022-12-07T06:26:14;100549.91;;;3.19;85.35
76864;BME280;65834;52.364;9.754;2022-12-07T06:28:44;100548.06;;;3.19;85.35
76864;BME280;65834;52.364;9.754;2022-12-07T06:31:15;100541.72;;;3.20;85.27
76864;BME280;65834;52.364;9.754;2022-12-07T06:33:44;100548.19;;;3.27;85.02
76864;BME280;65834;52.364;9.754;2022-12-07T06:36:17;100553.69;;;3.26;85.37
76864;BME280;65834;52.364;9.754;2022-12-07T06:38:52;100541.31;;;3.25;85.53
76864;BME280;65834;52.364;9.754;2022-12-07T06:41:23;100538.94;;;3.22;85.29
76864;BME280;65834;52.364;9.754;2022-12-07T06:43:52;100543.00;;;3.26;84.81
76864;BME280;65834;52.364;9.754;2022-12-07T06:46:22;100546.09;;;3.31;85.02
76864;BME280;65834;52.364;9.754;2022-12-07T06:48:52;100549.03;;;3.28;85.05
76864;BME280;65834;52.364;9.754;2022-12-07T06:51:24;100552.69;;;3.27;85.35
76864;BME280;65834;52.364;9.754;2022-12-07T06:53:55;100547.91;;;3.21;85.21
76864;BME280;65834;52.364;9.754;2022-12-07T06:56:24;100545.81;;;3.24;85.04
76864;BME280;65834;52.364;9.754;2022-12-07T06:58:55;100551.44;;;3.12;85.35
76864;BME280;65834;52.364;9.754;2022-12-07T07:01:25;100552.56;;;3.00;85.71
76864;BME280;65834;52.364;9.754;2022-12-07T07:03:54;100555.25;;;3.09;85.80
76864;BME280;65834;52.364;9.754;2022-12-07T07:06:27;100553.53;;;3.18;85.61
76864;BME280;65834;52.364;9.754;2022-12-07T07:08:56;100555.53;;;2.97;85.57
76864;BME280;65834;52.364;9.754;2022-12-07T07:11:26;100552.72;;;2.98;85.89
76864;BME280;65834;52.364;9.754;2022-12-07T07:13:55;100558.75;;;2.91;86.05
76864;BME280;65834;52.364;9.754;2022-12-07T07:16:29;100554.56;;;2.98;86.17
76864;BME280;65834;52.364;9.754;2022-12-07T07:18:59;100559.75;;;2.99;86.00
76864;BME280;65834;52.364;9.754;2022-12-07T07:21:31;100559.75;;;2.99;85.53
76864;BME280;65834;52.364;9.754;2022-12-07T07:24:00;100565.94;;;3.00;85.64
76864;BME280;65834;52.364;9.754;2022-12-07T07:26:30;100569.00;;;3.05;85.55
76864;BME280;65834;52.364;9.754;2022-12-07T07:28:59;100570.31;;;3.10;85.25
76864;BME280;65834;52.364;9.754;2022-12-07T07:31:29;100562.13;;;3.12;85.53
76864;BME280;65834;52.364;9.754;2022-12-07T07:34:01;100564.41;;;3.16;85.34
76864;BME280;65834;52.364;9.754;2022-12-07T07:36:34;100566.22;;;3.16;85.38
76864;BME280;65834;52.364;9.754;2022-12-07T07:39:03;100569.88;;;3.15;84.98
76864;BME280;65834;52.364;9.754;2022-12-07T07:41:33;100573.22;;;3.17;84.94
76864;BME280;65834;52.364;9.754;2022-12-07T07:44:03;100581.41;;;3.15;84.93
76864;BME280;65834;52.364;9.754;2022-12-07T07:46:32;100573.78;;;3.11;84.85
76864;BME280;65834;52.364;9.754;2022-12-07T07:49:02;100576.75;;;3.27;84.68
76864;BME280;65834;52.364;9.754;2022-12-07T07:51:35;100575.22;;;3.24;84.37
76864;BME280;65834;52.364;9.754;2022-12-07T07:54:04;100579.84;;;3.22;84.97
76864;BME280;65834;52.364;9.754;2022-12-07T07:56:34;100581.41;;;3.15;84.70
76864;BME280;65834;52.364;9.754;2022-12-07T07:59:04;100577.03;;;3.24;84.84
76864;BME280;65834;52.364;9.754;2022-12-07T08:01:34;100579.56;;;3.25;84.55
76864;BME280;65834;52.364;9.754;2022-12-07T08:04:04;100580.16;;;3.29;84.47
76864;BME280;65834;52.364;9.754;2022-12-07T08:06:36;100581.13;;;3.28;84.78
76864;BME280;65834;52.364;9.754;2022-12-07T08:09:05;100595.16;;;3.20;84.56
76864;BME280;65834;52.364;9.754;2022-12-07T08:11:35;100586.75;;;3.35;84.30
76864;BME280;65834;52.364;9.754;2022-12-07T08:14:05;100578.16;;;3.41;84.06
76864;BME280;65834;52.364;9.754;2022-12-07T08:16:34;100588.84;;;3.41;83.99
76864;BME280;65834;52.364;9.754;2022-12-07T08:19:04;100588.28;;;3.47;83.50
76864;BME280;65834;52.364;9.754;2022-12-07T08:21:37;100582.19;;;3.54;83.67
76864;BME280;65834;52.364;9.754;2022-12-07T08:24:07;100584.75;;;3.46;83.37
76864;BME280;65834;52.364;9.754;2022-12-07T08:26:36;100575.59;;;3.39;83.70
76864;BME280;65834;52.364;9.754;2022-12-07T08:29:06;100579.97;;;3.50;83.71
76864;BME280;65834;52.364;9.754;2022-12-07T08:31:36;100584.19;;;3.52;83.74
76864;BME280;65834;52.364;9.754;2022-12-07T08:34:06;100582.75;;;3.58;83.37
76864;BME280;65834;52.364;9.754;2022-12-07T08:36:38;100588.00;;;3.50;83.39
76864;BME280;65834;52.364;9.754;2022-12-07T08:39:08;100582.63;;;3.59;83.24
76864;BME280;65834;52.364;9.754;2022-12-07T08:41:58;100581.19;;;3.74;83.00
76864;BME280;65834;52.364;9.754;2022-12-07T08:44:27;100584.16;;;3.71;82.62
76864;BME280;65834;52.364;9.754;2022-12-07T08:46:59;100574.59;;;3.69;82.60
76864;BME280;65834;52.364;9.754;2022-12-07T08:49:31;100587.81;;;3.61;83.18
76864;BME280;65834;52.364;9.754;2022-12-07T08:52:05;100596.50;;;3.72;82.97
76864;BME280;65834;52.364;9.754;2022-12-07T08:54:36;100595.25;;;3.67;82.82
76864;BME280;65834;52.364;9.754;2022-12-07T08:57:08;100592.28;;;3.79;82.81
76864;BME280;65834;52.364;9.754;2022-12-07T08:59:38;100603.66;;;3.81;82.85
76864;BME280;65834;52.364;9.754;2022-12-07T09:02:08;100605.66;;;3.79;83.04
76864;BME280;65834;52.364;9.754;2022-12-07T09:04:37;100592.28;;;3.79;82.86
76864;BME280;65834;52.364;9.754;2022-12-07T09:07:09;100595.69;;;3.72;83.57
76864;BME280;65834;52.364;9.754;2022-12-07T09:09:39;100597.91;;;3.86;83.32
76864;BME280;65834;52.364;9.754;2022-12-07T09:12:09;100604.41;;;3.64;83.37
76864;BME280;65834;52.364;9.754;2022-12-07T09:14:39;100604.13;;;3.67;83.45
76864;BME280;65834;52.364;9.754;2022-12-07T09:17:10;100601.56;;;3.75;83.28
76864;BME280;65834;52.364;9.754;2022-12-07T09:19:40;100604.81;;;3.79;82.92
76864;BME280;65834;52.364;9.754;2022-12-07T09:22:13;100602.56;;;3.84;82.31
76864;BME280;65834;52.364;9.754;2022-12-07T09:24:42;100593.66;;;3.93;82.17
76864;BME280;65834;52.364;9.754;2022-12-07T09:27:13;100593.66;;;3.93;81.95
76864;BME280;65834;52.364;9.754;2022-12-07T09:29:44;100593.06;;;3.99;81.54
76864;BME280;65834;52.364;9.754;2022-12-07T09:32:14;100594.72;;;4.10;81.54
76864;BME280;65834;52.364;9.754;2022-12-07T09:34:43;100586.72;;;4.00;81.12
76864;BME280;65834;52.364;9.754;2022-12-07T09:37:15;100582.84;;;4.12;80.95
76864;BME280;65834;52.364;9.754;2022-12-07T09:39:45;100580.56;;;4.27;81.10
76864;BME280;65834;52.364;9.754;2022-12-07T09:42:26;100587.16;;;4.32;80.45
76864;BME280;65834;52.364;9.754;2022-12-07T09:44:58;100584.88;;;4.37;80.51
76864;BME280;65834;52.364;9.754;2022-12-07T09:47:29;100581.16;;;4.48;79.80
76864;BME280;65834;52.364;9.754;2022-12-07T09:50:06;100583.53;;;4.24;79.75
76864;BME280;65834;52.364;9.754;2022-12-07T09:52:40;100581.09;;;4.58;78.66
76864;BME280;65834;52.364;9.754;2022-12-07T09:55:12;100580.81;;;4.78;77.51
76864;BME280;65834;52.364;9.754;2022-12-07T09:57:43;100578.75;;;4.90;78.29
76864;BME280;65834;52.364;9.754;2022-12-07T10:00:16;100579.38;;;4.84;77.42
76864;BME280;65834;52.364;9.754;2022-12-07T10:02:51;100580.03;;;4.68;78.07
76864;BME280;65834;52.364;9.754;2022-12-07T10:05:27;100579.66;;;4.81;78.13
76864;BME280;65834;52.364;9.754;2022-12-07T10:08:01;100572.72;;;4.70;78.41
76864;BME280;65834;52.364;9.754;2022-12-07T10:10:32;100583.19;;;4.36;78.44
76864;BME280;65834;52.364;9.754;2022-12-07T10:13:07;100576.44;;;4.60;77.70
76864;BME280;65834;52.364;9.754;2022-12-07T10:15:46;100573.56;;;5.06;77.16
76864;BME280;65834;52.364;9.754;2022-12-07T10:18:25;100581.38;;;5.00;76.85
76864;BME280;65834;52.364;9.754;2022-12-07T10:21:09;100572.19;;;4.84;76.68
76864;BME280;65834;52.364;9.754;2022-12-07T10:23:59;100575.34;;;4.98;77.68
76864;BME280;65834;52.364;9.754;2022-12-07T10:26:33;100567.75;;;4.93;77.50
76864;BME280;65834;52.364;9.754;2022-12-07T10:29:04;100570.09;;;4.96;77.91
76864;BME280;65834;52.364;9.754;2022-12-07T10:31:43;100588.38;;;4.83;78.25
76864;BME280;65834;52.364;9.754;2022-12-07T10:34:21;100584.63;;;4.58;78.66
76864;BME280;65834;52.364;9.754;2022-12-07T10:36:51;100580.66;;;4.80;78.33
76864;BME280;65834;52.364;9.754;2022-12-07T10:39:24;100580.59;;;4.89;78.28
76864;BME280;65834;52.364;9.754;2022-12-07T10:41:54;100578.75;;;4.72;78.69
76864;BME280;65834;52.364;9.754;2022-12-07T10:44:26;100572.47;;;4.81;78.08
76864;BME280;65834;52.364;9.754;2022-12-07T10:47:03;100563.69;;;4.44;78.76
76864;BME280;65834;52.364;9.754;2022-12-07T10:49:52;100566.41;;;4.62;78.27
76864;BME280;65834;52.364;9.754;2022-12-07T10:52:37;100569.50;;;4.84;77.81
76864;BME280;65834;52.364;9.754;2022-12-07T10:55:20;100566.19;;;4.73;78.12
76864;BME280;65834;52.364;9.754;2022-12-07T10:57:59;100565.22;;;4.91;78.45
76864;BME280;65834;52.364;9.754;2022-12-07T11:00:37;100560.38;;;4.77;79.50
76864;BME280;65834;52.364;9.754;2022-12-07T11:03:25;100562.00;;;4.43;80.18
76864;BME280;65834;52.364;9.754;2022-12-07T11:06:06;100550.56;;;4.51;81.18
76864;BME280;65834;52.364;9.754;2022-12-07T11:08:48;100556.69;;;4.61;80.24
76864;BME280;65834;52.364;9.754;2022-12-07T11:11:24;100555.91;;;4.51;80.57
76864;BME280;65834;52.364;9.754;2022-12-07T11:14:03;100561.47;;;4.40;81.13
76864;BME280;65834;52.364;9.754;2022-12-07T11:16:50;100565.81;;;4.41;81.32
76864;BME280;65834;52.364;9.754;2022-12-07T11:22:22;100569.91;;;4.17;81.29
76864;BME280;65834;52.364;9.754;2022-12-07T11:24:59;100569.47;;;4.12;80.88
76864;BME280;65834;52.364;9.754;2022-12-07T11:27:38;100564.72;;;3.69;80.99
76864;BME280;65834;52.364;9.754;2022-12-07T11:30:13;100565.84;;;3.67;81.79
76864;BME280;65834;52.364;9.754;2022-12-07T11:32:51;100547.41;;;3.64;82.54
76864;BME280;65834;52.364;9.754;2022-12-07T11:35:33;100558.47;;;3.13;83.02
76864;BME280;65834;52.364;9.754;2022-12-07T11:38:12;100543.88;;;3.63;82.23
76864;BME280;65834;52.364;9.754;2022-12-07T11:40:49;100544.19;;;3.51;83.10
76864;BME280;65834;52.364;9.754;2022-12-07T11:43:25;100541.69;;;3.40;83.54
76864;BME280;65834;52.364;9.754;2022-12-07T11:45:59;100536.22;;;3.41;83.86
76864;BME280;65834;52.364;9.754;2022-12-07T11:48:33;100530.13;;;3.58;83.48
76864;BME280;65834;52.364;9.754;2022-12-07T11:51:08;100530.22;;;4.03;82.07
76864;BME280;65834;52.364;9.754;2022-12-07T11:53:44;100533.72;;;4.13;82.13
76864;BME280;65834;52.364;9.754;2022-12-07T11:56:16;100526.22;;;3.90;82.08
76864;BME280;65834;52.364;9.754;2022-12-07T11:58:54;100527.09;;;4.35;81.36
76864;BME280;65834;52.364;9.754;2022-12-07T12:01:42;100513.91;;;4.69;80.58
76864;BME280;65834;52.364;9.754;2022-12-07T12:04:25;100517.88;;;4.65;80.81
76864;BME280;65834;52.364;9.754;2022-12-07T12:06:56;100523.56;;;4.79;80.55
76864;BME280;65834;52.364;9.754;2022-12-07T12:09:50;100511.78;;;4.72;81.61
76864;BME280;65834;52.364;9.754;2022-12-07T12:12:35;100510.25;;;4.87;80.25
76864;BME280;65834;52.364;9.754;2022-12-07T12:15:38;100506.50;;;4.98;80.67
76864;BME280;65834;52.364;9.754;2022-12-07T12:18:37;100503.69;;;5.08;80.83
76864;BME280;65834;52.364;9.754;2022-12-07T12:21:14;100506.06;;;5.11;80.13
76864;BME280;65834;52.364;9.754;2022-12-07T12:23:45;100496.84;;;4.70;80.91
76864;BME280;65834;52.364;9.754;2022-12-07T12:26:20;100501.19;;;4.53;82.24
76864;BME280;65834;52.364;9.754;2022-12-07T12:28:53;100495.84;;;4.53;81.59
76864;BME280;65834;52.364;9.754;2022-12-07T12:31:36;100496.44;;;4.47;81.66
76864;BME280;65834;52.364;9.754;2022-12-07T12:34:31;100491.03;;;4.57;81.75
76864;BME280;65834;52.364;9.754;2022-12-07T12:37:02;100494.25;;;4.43;81.54
76864;BME280;65834;52.364;9.754;2022-12-07T12:39:32;100490.72;;;4.60;81.53
76864;BME280;65834;52.364;9.754;2022-12-07T12:42:17;100485.28;;;4.69;81.22
76864;BME280;65834;52.364;9.754;2022-12-07T12:47:57;100482.91;;;4.84;80.02
76864;BME280;65834;52.364;9.754;2022-12-07T12:50:29;100483.38;;;4.62;80.20
76864;BME280;65834;52.364;9.754;2022-12-07T12:53:19;100481.78;;;4.69;80.57
76864;BME280;65834;52.364;9.754;2022-12-07T12:56:15;100482.13;;;4.74;80.10
76864;BME280;65834;52.364;9.754;2022-12-07T12:59:19;100484.91;;;4.82;79.77
76864;BME280;65834;52.364;9.754;2022-12-07T13:01:54;100480.31;;;4.92;79.45
76864;BME280;65834;52.364;9.754;2022-12-07T13:04:39;100475.63;;;4.94;78.29
76864;BME280;65834;52.364;9.754;2022-12-07T13:07:12;100488.28;;;4.84;78.50
76864;BME280;65834;52.364;9.754;2022-12-07T13:09:44;100482.59;;;4.87;78.25
76864;BME280;65834;52.364;9.754;2022-12-07T13:12:16;100470.38;;;5.28;79.04
76864;BME280;65834;52.364;9.754;2022-12-07T13:14:54;100469.06;;;5.32;78.45
76864;BME280;65834;52.364;9.754;2022-12-07T13:20:48;100470.28;;;4.94;77.62
76864;BME280;65834;52.364;9.754;2022-12-07T13:23:29;100477.22;;;5.05;76.90
76864;BME280;65834;52.364;9.754;2022-12-07T13:26:14;100469.75;;;4.73;77.98
76864;BME280;65834;52.364;9.754;2022-12-07T13:28:46;100464.41;;;4.55;77.58
76864;BME280;65834;52.364;9.754;2022-12-07T13:31:23;100469.38;;;4.50;77.86
76864;BME280;65834;52.364;9.754;2022-12-07T13:33:55;100462.97;;;4.61;79.07
76864;BME280;65834;52.364;9.754;2022-12-07T13:36:30;100464.09;;;4.58;79.00
76864;BME280;65834;52.364;9.754;2022-12-07T13:39:17;100459.50;;;4.51;78.41
76864;BME280;65834;52.364;9.754;2022-12-07T13:41:50;100467.16;;;4.63;78.76